createdAt,value
2018-09-04T00:04:40.390Z,8.73
2018-09-04T00:09:43.499Z,10.67
2018-09-04T00:14:46.644Z,8.60
2018-09-04T00:19:49.760Z,7.70
2018-09-04T00:24:52.856Z,6.57
2018-09-04T00:29:55.935Z,9.37
2018-09-04T00:34:59.034Z,8.80
2018-09-04T00:40:02.122Z,9.60
2018-09-04T00:45:05.229Z,7.87
2018-09-04T00:50:08.343Z,9.63
2018-09-04T00:55:11.467Z,9.77
2018-09-04T01:00:14.554Z,10.37
2018-09-04T01:05:17.659Z,7.40
2018-09-04T01:10:20.897Z,11.33
2018-09-04T01:15:23.999Z,8.90
2018-09-04T01:20:27.151Z,10.93
2018-09-04T01:25:30.308Z,13.13
2018-09-04T01:30:33.428Z,9.97
2018-09-04T01:35:36.540Z,9.27
2018-09-04T01:40:39.655Z,12.23
2018-09-04T01:45:42.819Z,11.47
2018-09-04T01:50:45.921Z,14.50
2018-09-04T01:55:49.027Z,13.07
2018-09-04T02:00:52.126Z,13.13
2018-09-04T02:05:55.234Z,9.60
2018-09-04T02:10:58.323Z,10.83
2018-09-04T02:16:01.411Z,13.03
2018-09-04T02:21:04.535Z,11.47
2018-09-04T02:26:07.864Z,11.50
2018-09-04T02:31:10.956Z,9.57
2018-09-04T02:36:14.027Z,11.87
2018-09-04T02:41:17.126Z,11.97
2018-09-04T02:46:20.257Z,16.73
2018-09-04T02:51:23.356Z,12.70
2018-09-04T02:56:26.455Z,12.53
2018-09-04T03:01:29.591Z,13.47
2018-09-04T03:06:32.707Z,16.30
2018-09-04T03:11:35.848Z,18.43
2018-09-04T03:16:38.990Z,20.73
2018-09-04T03:21:42.293Z,12.67
2018-09-04T03:26:45.400Z,16.50
2018-09-04T03:31:48.547Z,17.00
2018-09-04T03:36:51.678Z,15.33
2018-09-04T03:41:54.836Z,20.70
2018-09-04T03:46:57.963Z,18.97
2018-09-04T03:52:01.090Z,17.40
2018-09-04T03:57:04.197Z,13.57
2018-09-04T04:02:07.318Z,20.37
2018-09-04T04:07:10.463Z,17.23
2018-09-04T04:12:13.547Z,14.97
2018-09-04T04:17:16.659Z,19.10
2018-09-04T04:22:19.771Z,15.57
2018-09-04T04:27:22.878Z,21.87
2018-09-04T04:32:26.694Z,23.83
2018-09-04T04:37:29.815Z,26.40
2018-09-04T04:42:32.926Z,27.50
2018-09-04T04:47:53.840Z,22.83
2018-09-04T04:52:56.828Z,19.30
2018-09-04T04:58:00.251Z,23.57
2018-09-04T05:03:03.360Z,27.97
2018-09-04T05:08:06.479Z,22.40
2018-09-04T05:13:09.784Z,25.53
2018-09-04T05:18:12.865Z,30.57
2018-09-04T05:23:15.955Z,31.07
2018-09-04T05:28:19.060Z,32.33
2018-09-04T05:33:52.931Z,28.60
2018-09-04T05:38:56.031Z,35.33
2018-09-04T05:44:00.382Z,27.47
2018-09-04T05:49:03.515Z,26.07
2018-09-04T05:54:06.600Z,27.77
2018-09-04T05:59:09.725Z,29.50
2018-09-04T06:04:12.886Z,26.00
2018-09-04T06:09:16.098Z,28.93
2018-09-04T06:19:31.512Z,25.33
2018-09-04T06:24:34.608Z,34.63
2018-09-04T06:29:37.760Z,29.00
2018-09-04T06:34:40.831Z,30.83
2018-09-04T06:39:43.933Z,31.67
2018-09-04T06:44:47.043Z,33.57
2018-09-04T06:49:50.169Z,35.83
2018-09-04T06:54:53.447Z,34.70
2018-09-04T06:59:56.575Z,36.13
2018-09-04T07:04:59.673Z,35.50
2018-09-04T07:10:02.784Z,29.97
2018-09-04T07:15:06.261Z,34.97
2018-09-04T07:20:09.330Z,37.23
2018-09-04T07:25:12.443Z,30.40
2018-09-04T07:30:15.551Z,31.83
2018-09-04T07:35:18.690Z,31.40
2018-09-04T07:40:21.786Z,32.23
2018-09-04T07:45:24.947Z,32.33
2018-09-04T07:50:28.056Z,32.40
2018-09-04T07:55:31.168Z,29.37
2018-09-04T08:00:34.306Z,29.30
2018-09-04T08:05:37.470Z,33.77
2018-09-04T08:10:40.593Z,29.00
2018-09-04T08:15:43.721Z,28.60
2018-09-04T08:20:47.016Z,31.50
2018-09-04T08:25:50.001Z,26.60
2018-09-04T08:30:53.120Z,26.80
2018-09-04T08:35:56.219Z,25.37
2018-09-04T08:40:59.384Z,25.63
2018-09-04T08:46:02.544Z,23.73
2018-09-04T08:51:05.811Z,25.80
2018-09-04T08:56:08.927Z,29.27
2018-09-04T09:01:12.191Z,21.03
2018-09-04T09:06:15.327Z,25.93
2018-09-04T09:11:18.449Z,27.50
2018-09-04T09:16:21.590Z,22.60
2018-09-04T09:21:24.736Z,18.87
2018-09-04T09:31:37.377Z,19.43
2018-09-04T09:36:40.625Z,21.73
2018-09-04T09:41:43.667Z,19.90
2018-09-04T09:46:46.771Z,17.90
2018-09-04T09:51:49.900Z,18.03
2018-09-04T09:56:53.015Z,19.83
2018-09-04T10:02:01.713Z,17.57
2018-09-04T10:07:04.843Z,16.93
2018-09-04T10:12:08.062Z,17.27
2018-09-04T10:17:11.219Z,18.53
2018-09-04T10:22:14.398Z,17.23
2018-09-04T10:27:17.564Z,18.17
2018-09-04T10:32:20.680Z,17.27
2018-09-04T10:37:23.801Z,14.30
2018-09-04T10:42:31.000Z,16.90
2018-09-04T10:47:34.127Z,17.60
2018-09-04T10:52:37.235Z,18.60
2018-09-04T10:57:40.382Z,15.20
2018-09-04T11:02:43.476Z,16.03
2018-09-04T11:07:46.578Z,16.73
2018-09-04T11:12:49.916Z,15.43
2018-09-04T11:17:53.011Z,14.97
2018-09-04T11:22:56.126Z,17.97
2018-09-04T11:27:59.249Z,16.00
2018-09-04T11:33:02.351Z,17.40
2018-09-04T11:38:05.630Z,13.40
2018-09-04T11:43:09.011Z,13.60
2018-09-04T11:48:15.573Z,13.80
2018-09-04T11:53:18.688Z,12.63
2018-09-04T11:58:21.772Z,12.70
2018-09-04T12:03:25.013Z,12.53
2018-09-04T12:08:28.122Z,12.40
2018-09-04T12:13:32.073Z,10.70
2018-09-04T12:18:35.170Z,14.17
2018-09-04T12:23:38.376Z,12.60
2018-09-04T12:28:41.468Z,11.90
2018-09-04T12:33:44.566Z,10.73
2018-09-04T12:38:47.650Z,10.20
2018-09-04T12:43:50.735Z,9.67
2018-09-04T12:48:53.852Z,7.33
2018-09-04T12:53:57.007Z,7.50
2018-09-04T12:59:00.128Z,7.07
2018-09-04T13:04:03.274Z,9.23
2018-09-04T13:09:06.930Z,15.07
2018-09-04T13:14:09.975Z,6.60
2018-09-04T13:19:13.058Z,5.93
2018-09-04T13:24:16.188Z,6.50
2018-09-04T13:29:19.276Z,4.63
2018-09-04T13:34:23.053Z,9.43
2018-09-04T13:39:26.099Z,9.73
2018-09-04T13:44:29.203Z,7.90
2018-09-04T13:49:32.519Z,4.83
2018-09-04T13:54:35.468Z,5.40
2018-09-04T13:59:38.628Z,4.67
2018-09-04T14:04:41.939Z,5.70
2018-09-04T14:09:45.042Z,6.43
2018-09-04T14:14:48.208Z,3.60
2018-09-04T14:19:51.314Z,6.37
2018-09-04T14:24:54.432Z,5.23
2018-09-04T14:30:15.537Z,4.10
2018-09-04T14:35:00.730Z,5.20
2018-09-04T14:40:03.863Z,3.70
2018-09-04T14:45:06.944Z,4.20
2018-09-04T14:50:10.080Z,3.47
2018-09-04T14:55:13.183Z,7.60
2018-09-04T15:00:16.291Z,4.47
2018-09-04T15:05:19.414Z,4.27
2018-09-04T15:10:22.520Z,3.50
2018-09-04T15:15:25.635Z,3.80
2018-09-04T15:20:28.751Z,4.00
2018-09-04T15:25:31.937Z,5.17
2018-09-04T15:30:34.970Z,6.50
2018-09-04T15:35:38.108Z,3.07
2018-09-04T15:40:41.215Z,5.83
2018-09-04T15:45:44.328Z,4.57
2018-09-04T15:50:47.427Z,4.37
2018-09-04T15:55:50.555Z,3.57
2018-09-04T16:00:53.655Z,3.90
2018-09-04T16:05:56.740Z,7.07
2018-09-04T16:10:59.827Z,4.27
2018-09-04T16:16:03.015Z,3.97
2018-09-04T16:21:06.245Z,5.50
2018-09-04T16:26:09.347Z,4.37
2018-09-04T16:31:12.432Z,4.23
2018-09-04T16:36:15.588Z,6.10
2018-09-04T16:41:18.924Z,8.73
2018-09-04T16:46:22.015Z,4.53
2018-09-04T16:51:25.122Z,5.60
2018-09-04T16:56:28.222Z,5.77
2018-09-04T17:01:31.351Z,6.10
2018-09-04T17:06:34.435Z,5.57
2018-09-04T17:11:38.015Z,6.37
2018-09-04T17:16:41.131Z,6.60
2018-09-04T17:21:44.251Z,12.13
2018-09-04T17:26:47.379Z,7.90
2018-09-04T17:31:50.502Z,8.30
2018-09-04T17:36:53.592Z,9.50
2018-09-04T17:41:56.712Z,5.40
2018-09-04T17:47:00.055Z,6.83
2018-09-04T17:52:03.163Z,5.23
2018-09-04T17:57:06.271Z,6.57
2018-09-04T18:02:09.358Z,5.03
2018-09-04T18:07:12.471Z,10.57
2018-09-04T18:12:16.572Z,6.50
2018-09-04T18:17:24.435Z,6.53
2018-09-04T18:22:27.600Z,8.63
2018-09-04T18:27:33.111Z,7.30
2018-09-04T18:32:36.456Z,5.87
2018-09-04T18:37:39.618Z,6.63
2018-09-04T18:42:42.756Z,6.30
2018-09-04T18:47:45.874Z,10.20
2018-09-04T18:52:48.991Z,5.17
2018-09-04T18:57:52.083Z,7.63
2018-09-04T19:02:55.205Z,7.27
2018-09-04T19:07:58.328Z,6.13
2018-09-04T19:13:01.853Z,7.30
2018-09-04T19:18:04.983Z,7.40
2018-09-04T19:23:08.110Z,5.57
2018-09-04T19:28:11.211Z,5.10
2018-09-04T19:33:14.359Z,6.10
2018-09-04T19:38:17.431Z,8.67
2018-09-04T19:43:20.581Z,7.00
2018-09-04T19:48:23.672Z,8.40
2018-09-04T19:53:26.781Z,5.67
2018-09-04T19:58:29.876Z,7.47
2018-09-04T20:03:33.016Z,6.67
2018-09-04T20:08:36.132Z,7.60
2018-09-04T20:13:39.251Z,8.00
2018-09-04T20:18:42.344Z,8.63
2018-09-04T20:23:45.486Z,7.40
2018-09-04T20:28:48.692Z,5.50
2018-09-04T20:33:51.910Z,6.80
2018-09-04T20:38:55.020Z,6.50
2018-09-04T20:43:58.109Z,6.97
2018-09-04T20:49:01.227Z,7.37
2018-09-04T20:54:04.395Z,6.73
2018-09-04T20:59:19.125Z,7.73
2018-09-04T21:04:33.772Z,6.70
2018-09-04T21:09:42.355Z,7.00
2018-09-04T21:14:45.503Z,7.37
2018-09-04T21:19:48.638Z,7.00
2018-09-04T21:24:51.739Z,12.47
2018-09-04T21:29:54.896Z,8.67
2018-09-04T21:34:58.026Z,6.37
2018-09-04T21:40:01.126Z,7.97
2018-09-04T21:45:04.547Z,6.67
2018-09-04T21:50:07.826Z,7.00
2018-09-04T21:55:10.904Z,5.90
2018-09-04T22:00:18.244Z,9.13
2018-09-04T22:05:21.511Z,8.53
2018-09-04T22:10:25.255Z,9.27
2018-09-04T22:15:28.399Z,8.53
2018-09-04T22:20:31.498Z,8.40
2018-09-04T22:25:34.632Z,6.00
2018-09-04T22:30:37.839Z,5.40
2018-09-04T22:35:40.950Z,11.07
2018-09-04T22:40:44.063Z,8.03
2018-09-04T22:45:47.190Z,9.80
2018-09-04T22:50:55.902Z,12.10
2018-09-04T22:55:59.008Z,6.83
2018-09-04T23:01:02.103Z,9.20
2018-09-04T23:06:05.423Z,10.83
2018-09-04T23:11:08.694Z,8.90
2018-09-04T23:16:11.778Z,7.30
2018-09-04T23:21:14.889Z,12.90
2018-09-04T23:26:18.003Z,6.37
2018-09-04T23:31:21.102Z,7.20
2018-09-04T23:36:24.187Z,7.17
2018-09-04T23:41:27.302Z,11.70
2018-09-04T23:46:31.671Z,11.00
2018-09-04T23:51:34.801Z,8.50
2018-09-04T23:56:37.909Z,9.10
